sensor_id;sensor_type;location;lat;lon;timestamp;temperature;humidity
32749;DHT22;19119;52.474;13.710;2023-02-19T00:01:22;8.60;99.90
32749;DHT22;19119;52.474;13.710;2023-02-19T00:03:49;8.60;99.90
32749;DHT22;19119;52.474;13.710;2023-02-19T00:06:16;8.60;99.90
32749;DHT22;19119;52.474;13.710;2023-02-19T00:08:42;8.50;99.90
32749;DHT22;19119;52.474;13.710;2023-02-19T00:11:08;8.40;99.90
32749;DHT22;19119;52.474;13.710;2023-02-19T00:13:36;8.30;99.90
32749;DHT22;19119;52.474;13.710;2023-02-19T00:16:44;8.30;99.90
32749;DHT22;19119;52.474;13.710;2023-02-19T00:18:50;8.20;99.90
32749;DHT22;19119;52.474;13.710;2023-02-19T00:21:16;8.10;99.90
32749;DHT22;19119;52.474;13.710;2023-02-19T00:23:42;8.10;99.90
32749;DHT22;19119;52.474;13.710;2023-02-19T00:26:09;8.10;99.90
32749;DHT22;19119;52.474;13.710;2023-02-19T00:28:35;8.10;99.90
32749;DHT22;19119;52.474;13.710;2023-02-19T00:31:07;8.10;99.90
32749;DHT22;19119;52.474;13.710;2023-02-19T00:33:33;7.90;99.90
32749;DHT22;19119;52.474;13.710;2023-02-19T00:36:01;8.00;99.90
32749;DHT22;19119;52.474;13.710;2023-02-19T00:38:27;7.90;99.90
32749;DHT22;19119;52.474;13.710;2023-02-19T00:40:53;7.90;99.90
32749;DHT22;19119;52.474;13.710;2023-02-19T00:43:18;7.80;99.90
32749;DHT22;19119;52.474;13.710;2023-02-19T00:45:43;7.70;99.90
32749;DHT22;19119;52.474;13.710;2023-02-19T00:48:09;7.70;99.90
32749;DHT22;19119;52.474;13.710;2023-02-19T00:50:35;7.70;99.90
32749;DHT22;19119;52.474;13.710;2023-02-19T00:53:00;7.80;99.90
32749;DHT22;19119;52.474;13.710;2023-02-19T00:55:26;7.70;99.90
32749;DHT22;19119;52.474;13.710;2023-02-19T00:57:51;7.60;99.90
32749;DHT22;19119;52.474;13.710;2023-02-19T01:00:17;7.60;99.90
32749;DHT22;19119;52.474;13.710;2023-02-19T01:02:42;7.40;99.90
32749;DHT22;19119;52.474;13.710;2023-02-19T01:05:08;7.50;99.90
32749;DHT22;19119;52.474;13.710;2023-02-19T01:07:37;7.40;99.90
32749;DHT22;19119;52.474;13.710;2023-02-19T01:10:03;7.30;99.90
32749;DHT22;19119;52.474;13.710;2023-02-19T01:12:29;7.40;99.90
32749;DHT22;19119;52.474;13.710;2023-02-19T01:14:56;7.30;99.90
32749;DHT22;19119;52.474;13.710;2023-02-19T01:17:21;7.30;99.90
32749;DHT22;19119;52.474;13.710;2023-02-19T01:19:47;7.20;99.90
32749;DHT22;19119;52.474;13.710;2023-02-19T01:22:12;7.20;99.90
32749;DHT22;19119;52.474;13.710;2023-02-19T01:24:38;7.20;99.90
32749;DHT22;19119;52.474;13.710;2023-02-19T01:27:03;7.20;99.90
32749;DHT22;19119;52.474;13.710;2023-02-19T01:29:29;7.20;99.90
32749;DHT22;19119;52.474;13.710;2023-02-19T01:31:54;7.10;99.90
32749;DHT22;19119;52.474;13.710;2023-02-19T01:34:20;7.10;99.90
32749;DHT22;19119;52.474;13.710;2023-02-19T01:36:46;7.20;99.90
32749;DHT22;19119;52.474;13.710;2023-02-19T01:39:11;7.20;99.90
32749;DHT22;19119;52.474;13.710;2023-02-19T01:41:39;7.10;99.90
32749;DHT22;19119;52.474;13.710;2023-02-19T01:46:39;7.00;99.90
32749;DHT22;19119;52.474;13.710;2023-02-19T01:49:11;6.90;99.90
32749;DHT22;19119;52.474;13.710;2023-02-19T01:51:41;6.90;99.90
32749;DHT22;19119;52.474;13.710;2023-02-19T01:54:11;6.90;99.90
32749;DHT22;19119;52.474;13.710;2023-02-19T01:56:39;6.80;99.90
32749;DHT22;19119;52.474;13.710;2023-02-19T01:59:05;6.80;99.90
32749;DHT22;19119;52.474;13.710;2023-02-19T02:01:31;6.80;99.90
32749;DHT22;19119;52.474;13.710;2023-02-19T02:03:57;6.70;99.90
32749;DHT22;19119;52.474;13.710;2023-02-19T02:06:29;6.60;99.90
32749;DHT22;19119;52.474;13.710;2023-02-19T02:08:56;6.60;99.90
32749;DHT22;19119;52.474;13.710;2023-02-19T02:11:48;6.60;99.90
32749;DHT22;19119;52.474;13.710;2023-02-19T02:14:19;6.50;99.90
32749;DHT22;19119;52.474;13.710;2023-02-19T14:34:44;7.10;99.90
32749;DHT22;19119;52.474;13.710;2023-02-19T14:37:16;7.40;99.90
32749;DHT22;19119;52.474;13.710;2023-02-19T14:39:43;7.20;99.90
32749;DHT22;19119;52.474;13.710;2023-02-19T14:42:21;7.10;99.90
32749;DHT22;19119;52.474;13.710;2023-02-19T14:44:57;7.00;99.90
32749;DHT22;19119;52.474;13.710;2023-02-19T14:47:25;7.50;99.90
32749;DHT22;19119;52.474;13.710;2023-02-19T14:49:58;7.00;99.90
32749;DHT22;19119;52.474;13.710;2023-02-19T14:55:08;6.90;99.90
32749;DHT22;19119;52.474;13.710;2023-02-19T14:57:39;6.90;99.90
32749;DHT22;19119;52.474;13.710;2023-02-19T15:02:48;6.80;99.90
32749;DHT22;19119;52.474;13.710;2023-02-19T15:05:15;6.80;99.90
32749;DHT22;19119;52.474;13.710;2023-02-19T15:07:41;6.70;99.90
32749;DHT22;19119;52.474;13.710;2023-02-19T15:10:08;6.80;99.90
32749;DHT22;19119;52.474;13.710;2023-02-19T15:15:17;6.70;99.90
32749;DHT22;19119;52.474;13.710;2023-02-19T15:17:43;6.60;99.90
32749;DHT22;19119;52.474;13.710;2023-02-19T15:20:11;6.50;99.90
32749;DHT22;19119;52.474;13.710;2023-02-19T15:22:40;6.50;99.90
32749;DHT22;19119;52.474;13.710;2023-02-19T15:25:10;6.40;99.90
32749;DHT22;19119;52.474;13.710;2023-02-19T15:27:39;6.40;99.90
32749;DHT22;19119;52.474;13.710;2023-02-19T15:30:26;6.30;99.90
32749;DHT22;19119;52.474;13.710;2023-02-19T15:32:55;6.30;99.90
32749;DHT22;19119;52.474;13.710;2023-02-19T15:35:22;6.20;99.90
32749;DHT22;19119;52.474;13.710;2023-02-19T15:37:50;6.20;99.90
32749;DHT22;19119;52.474;13.710;2023-02-19T15:40:16;6.10;99.90
32749;DHT22;19119;52.474;13.710;2023-02-19T15:42:45;6.00;99.90
32749;DHT22;19119;52.474;13.710;2023-02-19T15:45:42;6.00;99.90
32749;DHT22;19119;52.474;13.710;2023-02-19T15:48:18;5.90;99.90
32749;DHT22;19119;52.474;13.710;2023-02-19T15:50:52;5.90;99.90
32749;DHT22;19119;52.474;13.710;2023-02-19T15:53:25;5.90;99.90
32749;DHT22;19119;52.474;13.710;2023-02-19T15:56:01;5.80;99.90
32749;DHT22;19119;52.474;13.710;2023-02-19T15:58:41;5.80;99.90
32749;DHT22;19119;52.474;13.710;2023-02-19T16:01:15;5.80;99.90
32749;DHT22;19119;52.474;13.710;2023-02-19T16:03:43;5.70;99.90
32749;DHT22;19119;52.474;13.710;2023-02-19T16:06:11;5.70;99.90
32749;DHT22;19119;52.474;13.710;2023-02-19T16:08:43;5.60;99.90
32749;DHT22;19119;52.474;13.710;2023-02-19T16:11:39;5.60;99.90
32749;DHT22;19119;52.474;13.710;2023-02-19T16:16:44;5.40;99.90
32749;DHT22;19119;52.474;13.710;2023-02-19T16:19:10;5.50;99.90
32749;DHT22;19119;52.474;13.710;2023-02-19T16:21:36;5.40;99.90
32749;DHT22;19119;52.474;13.710;2023-02-19T16:24:12;5.30;99.90
32749;DHT22;19119;52.474;13.710;2023-02-19T16:26:42;5.30;99.90
32749;DHT22;19119;52.474;13.710;2023-02-19T16:29:21;5.20;99.90
32749;DHT22;19119;52.474;13.710;2023-02-19T16:31:50;5.10;99.90
32749;DHT22;19119;52.474;13.710;2023-02-19T16:34:51;5.10;99.90
32749;DHT22;19119;52.474;13.710;2023-02-19T16:37:33;5.10;99.90
32749;DHT22;19119;52.474;13.710;2023-02-19T16:42:39;4.90;99.90
32749;DHT22;19119;52.474;13.710;2023-02-19T16:45:20;4.70;99.90
32749;DHT22;19119;52.474;13.710;2023-02-19T16:47:45;4.70;99.90
32749;DHT22;19119;52.474;13.710;2023-02-19T16:50:19;4.80;99.90
32749;DHT22;19119;52.474;13.710;2023-02-19T16:52:52;4.70;99.90
32749;DHT22;19119;52.474;13.710;2023-02-19T16:55:18;4.70;99.90
32749;DHT22;19119;52.474;13.710;2023-02-19T16:57:44;4.70;99.90
32749;DHT22;19119;52.474;13.710;2023-02-19T17:00:18;4.60;99.90
32749;DHT22;19119;52.474;13.710;2023-02-19T17:02:46;4.50;99.90
32749;DHT22;19119;52.474;13.710;2023-02-19T17:05:12;4.50;99.90
32749;DHT22;19119;52.474;13.710;2023-02-19T17:07:38;4.40;99.90
32749;DHT22;19119;52.474;13.710;2023-02-19T17:10:03;4.40;99.90
32749;DHT22;19119;52.474;13.710;2023-02-19T17:12:29;4.30;99.90
32749;DHT22;19119;52.474;13.710;2023-02-19T17:14:54;4.30;99.90
32749;DHT22;19119;52.474;13.710;2023-02-19T17:17:20;4.20;99.90
32749;DHT22;19119;52.474;13.710;2023-02-19T17:19:45;4.10;99.90
32749;DHT22;19119;52.474;13.710;2023-02-19T17:22:11;4.10;99.90
32749;DHT22;19119;52.474;13.710;2023-02-19T17:24:41;4.00;99.90
32749;DHT22;19119;52.474;13.710;2023-02-19T17:27:10;4.00;99.90
32749;DHT22;19119;52.474;13.710;2023-02-19T17:29:37;3.90;99.90
32749;DHT22;19119;52.474;13.710;2023-02-19T17:32:02;3.80;99.90
32749;DHT22;19119;52.474;13.710;2023-02-19T17:34:28;3.80;99.90
32749;DHT22;19119;52.474;13.710;2023-02-19T17:36:54;3.70;99.90
32749;DHT22;19119;52.474;13.710;2023-02-19T17:39:19;3.50;99.90
32749;DHT22;19119;52.474;13.710;2023-02-19T17:41:45;3.40;99.90
32749;DHT22;19119;52.474;13.710;2023-02-19T17:44:10;3.30;99.90
32749;DHT22;19119;52.474;13.710;2023-02-19T17:46:37;3.30;99.90
32749;DHT22;19119;52.474;13.710;2023-02-19T17:49:02;3.10;99.90
32749;DHT22;19119;52.474;13.710;2023-02-19T17:51:28;3.00;99.90
32749;DHT22;19119;52.474;13.710;2023-02-19T17:53:53;2.90;99.90
32749;DHT22;19119;52.474;13.710;2023-02-19T17:56:22;2.70;99.90
32749;DHT22;19119;52.474;13.710;2023-02-19T17:58:49;2.70;99.90
32749;DHT22;19119;52.474;13.710;2023-02-19T18:01:16;2.70;99.90
32749;DHT22;19119;52.474;13.710;2023-02-19T18:03:42;2.70;99.90
32749;DHT22;19119;52.474;13.710;2023-02-19T18:06:07;2.60;99.90
32749;DHT22;19119;52.474;13.710;2023-02-19T18:08:33;2.60;99.90
32749;DHT22;19119;52.474;13.710;2023-02-19T18:10:58;2.50;99.90
32749;DHT22;19119;52.474;13.710;2023-02-19T18:13:25;2.50;99.90
32749;DHT22;19119;52.474;13.710;2023-02-19T18:15:50;2.40;99.90
32749;DHT22;19119;52.474;13.710;2023-02-19T18:18:18;2.40;99.90
32749;DHT22;19119;52.474;13.710;2023-02-19T18:20:43;2.30;99.90
32749;DHT22;19119;52.474;13.710;2023-02-19T18:23:09;2.30;99.90
32749;DHT22;19119;52.474;13.710;2023-02-19T18:25:34;2.30;99.90
32749;DHT22;19119;52.474;13.710;2023-02-19T18:28:00;2.20;99.90
32749;DHT22;19119;52.474;13.710;2023-02-19T18:30:26;2.20;99.90
32749;DHT22;19119;52.474;13.710;2023-02-19T18:32:53;2.10;99.90
32749;DHT22;19119;52.474;13.710;2023-02-19T18:35:19;2.00;99.90
32749;DHT22;19119;52.474;13.710;2023-02-19T18:37:51;2.10;99.90
32749;DHT22;19119;52.474;13.710;2023-02-19T18:40:19;2.00;99.90
32749;DHT22;19119;52.474;13.710;2023-02-19T18:42:44;2.00;99.90
32749;DHT22;19119;52.474;13.710;2023-02-19T18:45:10;2.00;99.90
32749;DHT22;19119;52.474;13.710;2023-02-19T18:47:36;1.90;99.90
32749;DHT22;19119;52.474;13.710;2023-02-19T18:50:02;1.80;99.90
32749;DHT22;19119;52.474;13.710;2023-02-19T18:52:27;1.90;99.90
32749;DHT22;19119;52.474;13.710;2023-02-19T18:54:54;1.80;99.90
32749;DHT22;19119;52.474;13.710;2023-02-19T18:57:22;1.80;99.90
32749;DHT22;19119;52.474;13.710;2023-02-19T18:59:48;1.90;99.90
32749;DHT22;19119;52.474;13.710;2023-02-19T19:02:13;1.80;99.90
32749;DHT22;19119;52.474;13.710;2023-02-19T19:04:40;1.90;99.90
32749;DHT22;19119;52.474;13.710;2023-02-19T19:07:07;1.90;99.90
32749;DHT22;19119;52.474;13.710;2023-02-19T19:09:33;1.90;99.90
32749;DHT22;19119;52.474;13.710;2023-02-19T19:11:59;1.90;99.90
32749;DHT22;19119;52.474;13.710;2023-02-19T19:14:25;2.00;99.90
32749;DHT22;19119;52.474;13.710;2023-02-19T19:16:50;2.00;99.90
32749;DHT22;19119;52.474;13.710;2023-02-19T19:19:16;1.90;99.90
32749;DHT22;19119;52.474;13.710;2023-02-19T19:21:42;1.90;99.90
32749;DHT22;19119;52.474;13.710;2023-02-19T19:24:08;2.00;99.90
32749;DHT22;19119;52.474;13.710;2023-02-19T19:26:34;1.90;99.90
32749;DHT22;19119;52.474;13.710;2023-02-19T19:29:00;2.00;99.90
32749;DHT22;19119;52.474;13.710;2023-02-19T19:31:33;1.90;99.90
32749;DHT22;19119;52.474;13.710;2023-02-19T19:33:58;1.90;99.90
32749;DHT22;19119;52.474;13.710;2023-02-19T19:36:24;1.80;99.90
32749;DHT22;19119;52.474;13.710;2023-02-19T19:38:50;1.80;99.90
32749;DHT22;19119;52.474;13.710;2023-02-19T19:41:17;1.70;99.90
32749;DHT22;19119;52.474;13.710;2023-02-19T19:43:42;1.70;99.90
32749;DHT22;19119;52.474;13.710;2023-02-19T19:46:08;1.70;99.90
32749;DHT22;19119;52.474;13.710;2023-02-19T19:48:34;1.60;99.90
32749;DHT22;19119;52.474;13.710;2023-02-19T19:51:00;1.70;99.90
32749;DHT22;19119;52.474;13.710;2023-02-19T19:53:26;1.70;99.90
32749;DHT22;19119;52.474;13.710;2023-02-19T19:55:51;1.60;99.90
32749;DHT22;19119;52.474;13.710;2023-02-19T19:58:17;1.60;99.90
32749;DHT22;19119;52.474;13.710;2023-02-19T20:00:47;1.60;99.90
32749;DHT22;19119;52.474;13.710;2023-02-19T20:03:12;1.50;99.90
32749;DHT22;19119;52.474;13.710;2023-02-19T20:05:38;1.60;99.90
32749;DHT22;19119;52.474;13.710;2023-02-19T20:08:04;1.50;99.90
32749;DHT22;19119;52.474;13.710;2023-02-19T20:10:29;1.50;99.90
32749;DHT22;19119;52.474;13.710;2023-02-19T20:12:55;1.40;99.90
32749;DHT22;19119;52.474;13.710;2023-02-19T20:15:21;1.40;99.90
32749;DHT22;19119;52.474;13.710;2023-02-19T20:17:47;1.40;99.90
32749;DHT22;19119;52.474;13.710;2023-02-19T20:20:15;1.40;99.90
32749;DHT22;19119;52.474;13.710;2023-02-19T20:22:41;1.40;99.90
32749;DHT22;19119;52.474;13.710;2023-02-19T20:25:07;1.50;99.90
32749;DHT22;19119;52.474;13.710;2023-02-19T20:27:32;1.50;99.90
32749;DHT22;19119;52.474;13.710;2023-02-19T20:29:58;1.50;99.90
32749;DHT22;19119;52.474;13.710;2023-02-19T20:32:23;1.50;99.90
32749;DHT22;19119;52.474;13.710;2023-02-19T20:34:49;1.50;99.90
32749;DHT22;19119;52.474;13.710;2023-02-19T20:37:15;1.50;99.90
32749;DHT22;19119;52.474;13.710;2023-02-19T20:39:40;1.40;99.90
32749;DHT22;19119;52.474;13.710;2023-02-19T20:42:07;1.40;99.90
32749;DHT22;19119;52.474;13.710;2023-02-19T20:44:33;1.30;99.90
32749;DHT22;19119;52.474;13.710;2023-02-19T20:46:59;1.40;99.90
32749;DHT22;19119;52.474;13.710;2023-02-19T20:49:27;1.40;99.90
32749;DHT22;19119;52.474;13.710;2023-02-19T20:51:58;1.40;99.90
32749;DHT22;19119;52.474;13.710;2023-02-19T20:54:29;1.40;99.90
32749;DHT22;19119;52.474;13.710;2023-02-19T20:56:58;1.30;99.90
32749;DHT22;19119;52.474;13.710;2023-02-19T20:59:27;1.40;99.90
32749;DHT22;19119;52.474;13.710;2023-02-19T21:01:57;1.40;99.90
32749;DHT22;19119;52.474;13.710;2023-02-19T21:04:23;1.30;99.90
32749;DHT22;19119;52.474;13.710;2023-02-19T21:06:48;1.40;99.90
32749;DHT22;19119;52.474;13.710;2023-02-19T21:09:20;1.30;99.90
32749;DHT22;19119;52.474;13.710;2023-02-19T21:11:46;1.30;99.90
32749;DHT22;19119;52.474;13.710;2023-02-19T21:14:12;1.20;99.90
32749;DHT22;19119;52.474;13.710;2023-02-19T21:16:38;1.30;99.90
32749;DHT22;19119;52.474;13.710;2023-02-19T21:19:04;1.90;99.90
32749;DHT22;19119;52.474;13.710;2023-02-19T21:21:30;1.40;99.90
32749;DHT22;19119;52.474;13.710;2023-02-19T21:23:57;1.40;99.90
32749;DHT22;19119;52.474;13.710;2023-02-19T21:26:30;1.30;99.90
32749;DHT22;19119;52.474;13.710;2023-02-19T21:28:56;1.40;99.90
32749;DHT22;19119;52.474;13.710;2023-02-19T21:31:22;1.40;99.90
32749;DHT22;19119;52.474;13.710;2023-02-19T21:33:47;1.40;99.90
32749;DHT22;19119;52.474;13.710;2023-02-19T21:36:13;1.40;99.90
32749;DHT22;19119;52.474;13.710;2023-02-19T21:38:39;1.40;99.90
32749;DHT22;19119;52.474;13.710;2023-02-19T21:41:05;1.40;99.90
32749;DHT22;19119;52.474;13.710;2023-02-19T21:43:30;1.40;99.90
32749;DHT22;19119;52.474;13.710;2023-02-19T21:45:56;1.30;99.90
32749;DHT22;19119;52.474;13.710;2023-02-19T21:48:21;1.40;99.90
32749;DHT22;19119;52.474;13.710;2023-02-19T21:50:47;1.30;99.90
32749;DHT22;19119;52.474;13.710;2023-02-19T21:53:13;1.40;99.90
32749;DHT22;19119;52.474;13.710;2023-02-19T21:55:39;1.40;99.90
32749;DHT22;19119;52.474;13.710;2023-02-19T21:58:06;1.40;99.90
32749;DHT22;19119;52.474;13.710;2023-02-19T22:00:31;1.40;99.90
32749;DHT22;19119;52.474;13.710;2023-02-19T22:02:57;1.40;99.90
32749;DHT22;19119;52.474;13.710;2023-02-19T22:05:25;1.50;99.90
32749;DHT22;19119;52.474;13.710;2023-02-19T22:07:51;1.50;99.90
32749;DHT22;19119;52.474;13.710;2023-02-19T22:10:20;1.60;99.90
32749;DHT22;19119;52.474;13.710;2023-02-19T22:12:45;1.70;99.90
32749;DHT22;19119;52.474;13.710;2023-02-19T22:15:11;1.80;99.90
32749;DHT22;19119;52.474;13.710;2023-02-19T22:17:37;1.80;99.90
32749;DHT22;19119;52.474;13.710;2023-02-19T22:20:04;1.90;99.90
32749;DHT22;19119;52.474;13.710;2023-02-19T22:22:30;1.90;99.90
32749;DHT22;19119;52.474;13.710;2023-02-19T22:24:55;2.00;99.90
32749;DHT22;19119;52.474;13.710;2023-02-19T22:27:21;2.00;99.90
32749;DHT22;19119;52.474;13.710;2023-02-19T22:29:48;2.10;99.90
32749;DHT22;19119;52.474;13.710;2023-02-19T22:32:14;2.10;99.90
32749;DHT22;19119;52.474;13.710;2023-02-19T22:34:39;2.10;99.90
32749;DHT22;19119;52.474;13.710;2023-02-19T22:37:06;2.20;99.90
32749;DHT22;19119;52.474;13.710;2023-02-19T22:39:31;2.10;99.90
32749;DHT22;19119;52.474;13.710;2023-02-19T22:41:57;2.10;99.90
32749;DHT22;19119;52.474;13.710;2023-02-19T22:44:22;2.10;99.90
32749;DHT22;19119;52.474;13.710;2023-02-19T22:46:50;2.00;99.90
32749;DHT22;19119;52.474;13.710;2023-02-19T22:49:17;2.00;99.90
32749;DHT22;19119;52.474;13.710;2023-02-19T22:51:51;2.00;99.90
32749;DHT22;19119;52.474;13.710;2023-02-19T22:54:17;1.90;99.90
32749;DHT22;19119;52.474;13.710;2023-02-19T22:56:46;1.90;99.90
32749;DHT22;19119;52.474;13.710;2023-02-19T22:59:11;2.00;99.90
32749;DHT22;19119;52.474;13.710;2023-02-19T23:01:37;1.90;99.90
32749;DHT22;19119;52.474;13.710;2023-02-19T23:04:02;1.90;99.90
32749;DHT22;19119;52.474;13.710;2023-02-19T23:06:32;1.90;99.90
32749;DHT22;19119;52.474;13.710;2023-02-19T23:09:02;1.90;99.90
32749;DHT22;19119;52.474;13.710;2023-02-19T23:11:30;1.90;99.90
32749;DHT22;19119;52.474;13.710;2023-02-19T23:13:57;1.80;99.90
32749;DHT22;19119;52.474;13.710;2023-02-19T23:16:22;1.80;99.90
32749;DHT22;19119;52.474;13.710;2023-02-19T23:18:48;1.80;99.90
32749;DHT22;19119;52.474;13.710;2023-02-19T23:21:14;1.70;99.90
32749;DHT22;19119;52.474;13.710;2023-02-19T23:23:41;1.70;99.90
32749;DHT22;19119;52.474;13.710;2023-02-19T23:26:07;1.70;99.90
32749;DHT22;19119;52.474;13.710;2023-02-19T23:28:33;1.60;99.90
32749;DHT22;19119;52.474;13.710;2023-02-19T23:30:58;1.60;99.90
32749;DHT22;19119;52.474;13.710;2023-02-19T23:33:24;1.60;99.90
32749;DHT22;19119;52.474;13.710;2023-02-19T23:35:49;1.60;99.90
32749;DHT22;19119;52.474;13.710;2023-02-19T23:38:15;1.60;99.90
32749;DHT22;19119;52.474;13.710;2023-02-19T23:40:41;1.50;99.90
32749;DHT22;19119;52.474;13.710;2023-02-19T23:43:06;1.50;99.90
32749;DHT22;19119;52.474;13.710;2023-02-19T23:45:32;1.60;99.90
32749;DHT22;19119;52.474;13.710;2023-02-19T23:47:58;1.60;99.90
32749;DHT22;19119;52.474;13.710;2023-02-19T23:50:23;1.60;99.90
32749;DHT22;19119;52.474;13.710;2023-02-19T23:52:49;1.50;99.90
32749;DHT22;19119;52.474;13.710;2023-02-19T23:55:14;1.60;99.90
32749;DHT22;19119;52.474;13.710;2023-02-19T23:57:40;1.50;99.90
